createdAt,value
2022-08-14T00:02:15.374Z,5.95
2022-08-14T00:04:45.029Z,5.97
2022-08-14T00:07:13.767Z,6.65
2022-08-14T00:09:55.731Z,6.03
2022-08-14T00:12:33.031Z,6.55
2022-08-14T00:15:02.929Z,6.28
2022-08-14T00:17:30.256Z,6.53
2022-08-14T00:20:02.126Z,6.20
2022-08-14T00:22:56.429Z,6.30
2022-08-14T00:25:17.641Z,5.82
2022-08-14T00:27:45.551Z,6.80
2022-08-14T00:30:17.441Z,6.72
2022-08-14T00:32:52.939Z,6.20
2022-08-14T00:35:32.485Z,6.82
2022-08-14T00:38:11.529Z,6.22
2022-08-14T00:40:39.227Z,7.18
2022-08-14T00:43:14.939Z,6.32
2022-08-14T00:45:43.217Z,6.40
2022-08-14T00:48:34.491Z,6.85
2022-08-14T00:51:09.010Z,6.78
2022-08-14T00:53:38.457Z,7.90
2022-08-14T00:56:08.605Z,7.03
2022-08-14T00:58:45.248Z,7.00
2022-08-14T01:01:18.831Z,7.53
2022-08-14T01:03:46.257Z,6.60
2022-08-14T01:08:57.921Z,6.97
2022-08-14T01:11:31.721Z,7.07
2022-08-14T01:14:05.083Z,7.50
2022-08-14T01:16:52.988Z,7.05
2022-08-14T01:19:39.281Z,7.07
2022-08-14T01:22:12.781Z,7.40
2022-08-14T01:24:43.365Z,6.40
2022-08-14T01:27:24.437Z,7.20
2022-08-14T01:30:03.180Z,7.70
2022-08-14T01:32:37.610Z,7.38
2022-08-14T01:35:17.243Z,7.18
2022-08-14T01:37:58.868Z,6.63
2022-08-14T01:40:36.750Z,7.35
2022-08-14T01:43:14.848Z,7.75
2022-08-14T01:45:48.960Z,8.00
2022-08-14T01:48:25.894Z,7.20
2022-08-14T01:50:53.991Z,7.50
2022-08-14T01:53:22.748Z,7.47
2022-08-14T01:55:51.818Z,7.75
2022-08-14T01:58:28.510Z,7.45
2022-08-14T02:00:57.154Z,8.07
2022-08-14T02:03:30.251Z,7.32
2022-08-14T02:06:04.092Z,7.22
2022-08-14T02:08:53.187Z,7.57
2022-08-14T02:11:24.691Z,7.03
2022-08-14T02:13:54.508Z,8.13
2022-08-14T02:16:26.362Z,8.23
2022-08-14T02:18:56.265Z,7.53
2022-08-14T02:21:27.593Z,7.50
2022-08-14T02:23:55.748Z,8.10
2022-08-14T02:26:30.625Z,8.52
2022-08-14T02:29:03.558Z,7.82
2022-08-14T02:31:42.560Z,8.32
2022-08-14T02:34:20.142Z,7.65
2022-08-14T02:37:04.109Z,8.13
2022-08-14T02:39:36.989Z,8.40
2022-08-14T02:42:06.174Z,7.68
2022-08-14T02:44:39.513Z,7.95
2022-08-14T02:47:14.971Z,7.97
2022-08-14T02:49:46.420Z,8.25
2022-08-14T02:52:55.277Z,8.60
2022-08-14T02:55:09.741Z,8.55
2022-08-14T02:57:40.413Z,7.80
2022-08-14T03:00:10.680Z,7.57
2022-08-14T03:02:56.027Z,7.75
2022-08-14T03:05:30.636Z,8.27
2022-08-14T03:08:09.094Z,8.45
2022-08-14T03:10:41.731Z,8.38
2022-08-14T03:13:19.173Z,8.05
2022-08-14T03:15:48.549Z,8.55
2022-08-14T03:18:31.810Z,8.25
2022-08-14T03:21:04.318Z,7.60
2022-08-14T03:23:37.945Z,8.95
2022-08-14T03:26:13.191Z,8.20
2022-08-14T03:28:51.257Z,7.95
2022-08-14T03:31:26.032Z,8.43
2022-08-14T03:33:56.486Z,8.45
2022-08-14T03:37:37.937Z,9.15
2022-08-14T03:39:22.588Z,8.65
2022-08-14T03:41:56.348Z,8.40
2022-08-14T03:45:18.933Z,8.63
2022-08-14T03:47:16.057Z,9.07
2022-08-14T03:49:46.069Z,8.63
2022-08-14T03:52:37.856Z,8.00
2022-08-14T03:55:09.016Z,8.50
2022-08-14T03:57:37.553Z,9.23
2022-08-14T04:00:13.461Z,8.70
2022-08-14T04:02:55.014Z,8.38
2022-08-14T04:05:22.376Z,8.25
2022-08-14T04:08:08.380Z,8.27
2022-08-14T04:10:39.966Z,8.68
2022-08-14T04:13:07.621Z,8.80
2022-08-14T04:15:56.229Z,8.48
2022-08-14T04:18:23.584Z,9.27
2022-08-14T04:20:54.555Z,8.20
2022-08-14T04:23:32.727Z,8.85
2022-08-14T04:26:08.201Z,8.50
2022-08-14T04:29:02.226Z,8.88
2022-08-14T04:32:58.926Z,8.43
2022-08-14T04:34:17.129Z,9.05
2022-08-14T04:37:07.347Z,8.98
2022-08-14T04:39:56.899Z,9.63
2022-08-14T04:42:47.477Z,9.10
2022-08-14T04:45:21.860Z,9.10
2022-08-14T04:48:10.169Z,8.73
2022-08-14T04:50:44.534Z,8.93
2022-08-14T04:53:17.383Z,8.73
2022-08-14T04:55:51.763Z,8.90
2022-08-14T04:58:32.950Z,8.68
2022-08-14T05:01:03.912Z,9.05
2022-08-14T05:03:32.715Z,9.18
2022-08-14T05:06:03.243Z,8.88
2022-08-14T05:08:50.723Z,8.73
2022-08-14T05:11:20.122Z,8.57
2022-08-14T05:16:34.366Z,9.13
2022-08-14T05:19:18.244Z,8.25
2022-08-14T05:21:59.585Z,8.68
2022-08-14T05:24:29.043Z,8.85
2022-08-14T05:26:56.309Z,8.77
2022-08-14T05:29:23.862Z,8.55
2022-08-14T05:31:57.252Z,8.52
2022-08-14T05:34:28.932Z,8.05
2022-08-14T05:37:02.881Z,8.73
2022-08-14T05:39:31.261Z,8.77
2022-08-14T05:42:00.608Z,9.23
2022-08-14T05:44:30.685Z,8.55
2022-08-14T05:46:58.993Z,8.43
2022-08-14T05:49:33.741Z,8.68
2022-08-14T05:52:04.440Z,8.35
2022-08-14T05:54:37.441Z,8.48
2022-08-14T05:57:05.083Z,9.02
2022-08-14T05:59:38.848Z,8.55
2022-08-14T06:02:10.154Z,8.60
2022-08-14T06:04:38.186Z,8.02
2022-08-14T06:07:05.844Z,8.23
2022-08-14T06:09:35.745Z,8.40
2022-08-14T06:12:11.929Z,8.57
2022-08-14T06:14:39.471Z,8.60
2022-08-14T06:17:06.921Z,8.05
2022-08-14T06:19:34.086Z,8.57
2022-08-14T06:22:02.143Z,8.73
2022-08-14T06:24:30.694Z,7.95
2022-08-14T06:27:06.374Z,7.72
2022-08-14T06:29:38.112Z,8.45
2022-08-14T06:32:36.862Z,7.93
2022-08-14T06:35:11.479Z,8.02
2022-08-14T06:37:52.010Z,7.90
2022-08-14T06:40:28.438Z,7.70
2022-08-14T06:43:00.312Z,8.20
2022-08-14T06:45:42.077Z,8.43
2022-08-14T06:48:17.792Z,7.60
2022-08-14T06:50:46.698Z,7.68
2022-08-14T06:53:14.852Z,8.02
2022-08-14T06:55:58.519Z,7.93
2022-08-14T06:58:31.346Z,7.95
2022-08-14T07:01:25.030Z,8.68
2022-08-14T07:04:22.928Z,8.27
2022-08-14T07:06:52.054Z,7.82
2022-08-14T07:09:24.851Z,8.23
2022-08-14T07:11:56.391Z,8.18
2022-08-14T07:14:25.067Z,8.50
2022-08-14T07:16:53.688Z,8.60
2022-08-14T07:19:21.191Z,8.30
2022-08-14T07:21:48.602Z,8.82
2022-08-14T07:24:22.115Z,8.45
2022-08-14T07:26:58.344Z,8.00
2022-08-14T07:29:28.991Z,8.35
2022-08-14T07:31:56.142Z,9.10
2022-08-14T07:34:26.374Z,8.43
2022-08-14T07:37:05.942Z,7.82
2022-08-14T07:39:34.289Z,8.52
2022-08-14T07:42:01.827Z,8.00
2022-08-14T07:44:35.773Z,8.60
2022-08-14T07:47:16.668Z,7.93
2022-08-14T07:49:55.443Z,7.90
2022-08-14T07:52:31.098Z,8.10
2022-08-14T07:55:00.289Z,7.68
2022-08-14T07:57:28.680Z,7.47
2022-08-14T07:59:55.744Z,7.75
2022-08-14T08:02:24.042Z,8.32
2022-08-14T08:04:59.239Z,8.00
2022-08-14T08:07:32.141Z,8.07
2022-08-14T08:10:46.320Z,7.60
2022-08-14T08:13:16.963Z,7.50
2022-08-14T08:15:51.989Z,7.38
2022-08-14T08:18:20.372Z,8.15
2022-08-14T08:20:55.324Z,8.10
2022-08-14T08:23:34.411Z,8.05
2022-08-14T08:26:07.329Z,8.25
2022-08-14T08:28:34.472Z,8.02
2022-08-14T08:31:03.833Z,8.20
2022-08-14T08:33:36.858Z,7.90
2022-08-14T08:36:12.981Z,8.13
2022-08-14T08:39:17.976Z,7.95
2022-08-14T08:41:41.655Z,8.25
2022-08-14T08:44:30.060Z,7.70
2022-08-14T08:47:00.126Z,8.00
2022-08-14T08:49:52.801Z,8.20
2022-08-14T08:52:31.771Z,7.90
2022-08-14T08:55:00.845Z,7.22
2022-08-14T08:57:36.072Z,7.80
2022-08-14T09:00:24.518Z,7.22
2022-08-14T09:02:57.605Z,7.68
2022-08-14T09:05:26.129Z,8.02
2022-08-14T09:07:56.416Z,8.38
2022-08-14T09:10:23.973Z,7.72
2022-08-14T09:12:56.497Z,7.70
2022-08-14T09:15:24.200Z,7.22
2022-08-14T09:17:52.339Z,7.20
2022-08-14T09:20:26.454Z,7.32
2022-08-14T09:22:58.440Z,7.97
2022-08-14T09:25:58.731Z,7.45
2022-08-14T09:28:14.501Z,8.23
2022-08-14T09:31:00.894Z,8.18
2022-08-14T09:34:19.688Z,7.80
2022-08-14T09:37:31.887Z,8.20
2022-08-14T09:40:21.021Z,7.43
2022-08-14T09:42:55.045Z,7.00
2022-08-14T09:47:57.889Z,7.45
2022-08-14T09:50:32.022Z,7.47
2022-08-14T09:53:03.758Z,7.47
2022-08-14T09:55:42.321Z,7.47
2022-08-14T09:58:22.550Z,6.80
2022-08-14T10:00:54.802Z,6.40
2022-08-14T10:03:36.436Z,6.80
2022-08-14T10:06:19.482Z,6.63
2022-08-14T10:09:16.888Z,6.70
2022-08-14T10:11:55.205Z,7.05
2022-08-14T10:14:35.849Z,7.13
2022-08-14T10:17:07.086Z,7.47
2022-08-14T10:19:47.080Z,6.10
2022-08-14T10:23:15.574Z,5.47
2022-08-14T10:25:39.657Z,6.82
2022-08-14T10:28:39.506Z,6.47
2022-08-14T10:30:57.551Z,6.30
2022-08-14T10:34:13.209Z,5.85
2022-08-14T10:37:14.431Z,6.22
2022-08-14T10:40:01.387Z,6.40
2022-08-14T10:42:39.722Z,6.03
2022-08-14T10:45:35.741Z,6.40
2022-08-14T10:48:34.521Z,6.45
2022-08-14T10:51:04.844Z,6.68
